sensor_id;sensor_type;location;lat;lon;timestamp;P1;durP1;ratioP1;P2;durP2;ratioP2
37655;SDS011;23498;50.958;3.124;2023-09-07T00:01:28;22.33;;;18.70;;
37655;SDS011;23498;50.958;3.124;2023-09-07T00:03:55;22.00;;;19.27;;
37655;SDS011;23498;50.958;3.124;2023-09-07T00:06:21;23.70;;;19.35;;
37655;SDS011;23498;50.958;3.124;2023-09-07T00:08:47;22.98;;;19.33;;
37655;SDS011;23498;50.958;3.124;2023-09-07T00:11:13;23.05;;;18.98;;
37655;SDS011;23498;50.958;3.124;2023-09-07T00:13:39;25.73;;;20.00;;
37655;SDS011;23498;50.958;3.124;2023-09-07T00:16:05;22.88;;;19.88;;
37655;SDS011;23498;50.958;3.124;2023-09-07T00:18:32;25.40;;;19.77;;
37655;SDS011;23498;50.958;3.124;2023-09-07T00:20:59;24.95;;;19.52;;
37655;SDS011;23498;50.958;3.124;2023-09-07T00:23:25;23.38;;;18.95;;
37655;SDS011;23498;50.958;3.124;2023-09-07T00:25:51;23.30;;;20.05;;
37655;SDS011;23498;50.958;3.124;2023-09-07T00:28:18;25.48;;;20.17;;
37655;SDS011;23498;50.958;3.124;2023-09-07T00:30:44;24.83;;;20.15;;
37655;SDS011;23498;50.958;3.124;2023-09-07T00:33:10;24.58;;;20.25;;
37655;SDS011;23498;50.958;3.124;2023-09-07T00:35:36;27.52;;;20.58;;
37655;SDS011;23498;50.958;3.124;2023-09-07T00:38:02;25.63;;;20.25;;
37655;SDS011;23498;50.958;3.124;2023-09-07T00:40:28;24.13;;;20.50;;
37655;SDS011;23498;50.958;3.124;2023-09-07T00:42:54;26.75;;;21.45;;
37655;SDS011;23498;50.958;3.124;2023-09-07T00:45:20;28.23;;;21.25;;
37655;SDS011;23498;50.958;3.124;2023-09-07T00:47:46;25.48;;;20.65;;
37655;SDS011;23498;50.958;3.124;2023-09-07T00:50:13;26.92;;;21.42;;
37655;SDS011;23498;50.958;3.124;2023-09-07T00:52:42;28.17;;;20.90;;
37655;SDS011;23498;50.958;3.124;2023-09-07T00:55:08;27.35;;;20.92;;
37655;SDS011;23498;50.958;3.124;2023-09-07T00:57:35;27.90;;;22.00;;
37655;SDS011;23498;50.958;3.124;2023-09-07T01:00:02;27.75;;;21.50;;
37655;SDS011;23498;50.958;3.124;2023-09-07T01:02:28;24.77;;;20.48;;
37655;SDS011;23498;50.958;3.124;2023-09-07T01:04:56;24.88;;;20.55;;
37655;SDS011;23498;50.958;3.124;2023-09-07T01:07:26;26.30;;;21.40;;
37655;SDS011;23498;50.958;3.124;2023-09-07T01:09:56;25.00;;;21.95;;
37655;SDS011;23498;50.958;3.124;2023-09-07T01:12:23;25.35;;;20.73;;
37655;SDS011;23498;50.958;3.124;2023-09-07T01:14:49;24.98;;;21.02;;
37655;SDS011;23498;50.958;3.124;2023-09-07T01:17:15;26.98;;;20.38;;
37655;SDS011;23498;50.958;3.124;2023-09-07T01:19:41;28.95;;;21.75;;
37655;SDS011;23498;50.958;3.124;2023-09-07T01:22:10;28.20;;;21.92;;
37655;SDS011;23498;50.958;3.124;2023-09-07T01:24:37;30.08;;;21.40;;
37655;SDS011;23498;50.958;3.124;2023-09-07T01:27:04;26.88;;;20.83;;
37655;SDS011;23498;50.958;3.124;2023-09-07T01:29:31;28.65;;;20.77;;
37655;SDS011;23498;50.958;3.124;2023-09-07T01:31:57;25.13;;;19.80;;
37655;SDS011;23498;50.958;3.124;2023-09-07T01:34:24;24.95;;;20.15;;
37655;SDS011;23498;50.958;3.124;2023-09-07T01:36:50;26.23;;;20.48;;
37655;SDS011;23498;50.958;3.124;2023-09-07T01:39:16;26.90;;;20.30;;
37655;SDS011;23498;50.958;3.124;2023-09-07T01:41:42;23.58;;;19.48;;
37655;SDS011;23498;50.958;3.124;2023-09-07T01:44:08;23.73;;;19.85;;
37655;SDS011;23498;50.958;3.124;2023-09-07T01:46:34;29.90;;;20.52;;
37655;SDS011;23498;50.958;3.124;2023-09-07T01:49:01;26.45;;;20.65;;
37655;SDS011;23498;50.958;3.124;2023-09-07T01:51:27;27.90;;;20.15;;
37655;SDS011;23498;50.958;3.124;2023-09-07T01:53:53;25.17;;;19.80;;
37655;SDS011;23498;50.958;3.124;2023-09-07T01:56:19;25.00;;;20.33;;
37655;SDS011;23498;50.958;3.124;2023-09-07T01:58:45;28.17;;;21.33;;
37655;SDS011;23498;50.958;3.124;2023-09-07T02:01:24;31.92;;;20.52;;
37655;SDS011;23498;50.958;3.124;2023-09-07T02:03:51;28.20;;;20.73;;
37655;SDS011;23498;50.958;3.124;2023-09-07T02:06:17;28.48;;;20.63;;
37655;SDS011;23498;50.958;3.124;2023-09-07T02:08:43;27.15;;;20.55;;
37655;SDS011;23498;50.958;3.124;2023-09-07T02:11:09;24.98;;;20.10;;
37655;SDS011;23498;50.958;3.124;2023-09-07T02:13:35;31.35;;;20.70;;
37655;SDS011;23498;50.958;3.124;2023-09-07T02:16:04;26.90;;;20.40;;
37655;SDS011;23498;50.958;3.124;2023-09-07T02:18:34;25.98;;;20.98;;
37655;SDS011;23498;50.958;3.124;2023-09-07T02:21:04;26.17;;;21.23;;
37655;SDS011;23498;50.958;3.124;2023-09-07T02:23:30;27.67;;;21.38;;
37655;SDS011;23498;50.958;3.124;2023-09-07T02:25:56;28.42;;;21.23;;
37655;SDS011;23498;50.958;3.124;2023-09-07T02:28:23;29.25;;;21.52;;
37655;SDS011;23498;50.958;3.124;2023-09-07T02:30:49;27.05;;;22.05;;
37655;SDS011;23498;50.958;3.124;2023-09-07T02:33:15;27.63;;;21.25;;
37655;SDS011;23498;50.958;3.124;2023-09-07T02:35:41;30.42;;;21.55;;
37655;SDS011;23498;50.958;3.124;2023-09-07T02:38:07;24.95;;;21.00;;
37655;SDS011;23498;50.958;3.124;2023-09-07T02:40:38;25.50;;;20.90;;
37655;SDS011;23498;50.958;3.124;2023-09-07T02:43:05;24.45;;;19.25;;
37655;SDS011;23498;50.958;3.124;2023-09-07T02:45:31;24.63;;;18.80;;
37655;SDS011;23498;50.958;3.124;2023-09-07T02:47:57;23.65;;;18.75;;
37655;SDS011;23498;50.958;3.124;2023-09-07T02:50:23;24.88;;;18.63;;
37655;SDS011;23498;50.958;3.124;2023-09-07T02:52:49;25.33;;;19.52;;
37655;SDS011;23498;50.958;3.124;2023-09-07T02:55:15;24.33;;;19.80;;
37655;SDS011;23498;50.958;3.124;2023-09-07T02:57:41;27.42;;;19.98;;
37655;SDS011;23498;50.958;3.124;2023-09-07T03:00:07;30.10;;;22.67;;
37655;SDS011;23498;50.958;3.124;2023-09-07T03:02:36;27.23;;;21.42;;
37655;SDS011;23498;50.958;3.124;2023-09-07T03:05:02;31.45;;;23.42;;
37655;SDS011;23498;50.958;3.124;2023-09-07T03:07:32;26.98;;;21.92;;
37655;SDS011;23498;50.958;3.124;2023-09-07T03:09:59;26.60;;;21.55;;
37655;SDS011;23498;50.958;3.124;2023-09-07T03:12:25;30.48;;;21.73;;
37655;SDS011;23498;50.958;3.124;2023-09-07T03:14:51;29.10;;;22.67;;
37655;SDS011;23498;50.958;3.124;2023-09-07T03:17:18;29.60;;;22.55;;
37655;SDS011;23498;50.958;3.124;2023-09-07T03:19:45;27.02;;;21.92;;
37655;SDS011;23498;50.958;3.124;2023-09-07T03:22:11;29.98;;;21.42;;
37655;SDS011;23498;50.958;3.124;2023-09-07T03:24:38;29.25;;;21.63;;
37655;SDS011;23498;50.958;3.124;2023-09-07T03:27:04;27.65;;;22.58;;
37655;SDS011;23498;50.958;3.124;2023-09-07T03:29:30;29.33;;;22.55;;
37655;SDS011;23498;50.958;3.124;2023-09-07T03:31:58;29.10;;;24.58;;
37655;SDS011;23498;50.958;3.124;2023-09-07T03:34:25;31.05;;;23.92;;
37655;SDS011;23498;50.958;3.124;2023-09-07T03:36:51;32.15;;;24.90;;
37655;SDS011;23498;50.958;3.124;2023-09-07T03:39:17;29.85;;;24.00;;
37655;SDS011;23498;50.958;3.124;2023-09-07T03:41:44;30.98;;;24.70;;
37655;SDS011;23498;50.958;3.124;2023-09-07T03:44:10;32.15;;;24.75;;
37655;SDS011;23498;50.958;3.124;2023-09-07T03:46:36;32.97;;;25.83;;
37655;SDS011;23498;50.958;3.124;2023-09-07T03:49:02;33.20;;;24.95;;
37655;SDS011;23498;50.958;3.124;2023-09-07T03:51:28;33.42;;;25.42;;
37655;SDS011;23498;50.958;3.124;2023-09-07T03:53:54;34.90;;;26.95;;
37655;SDS011;23498;50.958;3.124;2023-09-07T03:56:20;31.73;;;26.50;;
37655;SDS011;23498;50.958;3.124;2023-09-07T03:58:46;35.42;;;27.20;;
37655;SDS011;23498;50.958;3.124;2023-09-07T04:01:12;38.15;;;27.23;;
37655;SDS011;23498;50.958;3.124;2023-09-07T04:03:39;36.60;;;26.55;;
37655;SDS011;23498;50.958;3.124;2023-09-07T04:06:07;35.55;;;26.02;;
37655;SDS011;23498;50.958;3.124;2023-09-07T04:08:34;34.13;;;26.92;;
37655;SDS011;23498;50.958;3.124;2023-09-07T04:11:04;34.28;;;25.98;;
37655;SDS011;23498;50.958;3.124;2023-09-07T04:13:31;33.08;;;26.00;;
37655;SDS011;23498;50.958;3.124;2023-09-07T04:15:57;32.53;;;25.58;;
37655;SDS011;23498;50.958;3.124;2023-09-07T04:18:23;33.70;;;25.27;;
37655;SDS011;23498;50.958;3.124;2023-09-07T04:20:49;33.15;;;27.02;;
37655;SDS011;23498;50.958;3.124;2023-09-07T04:23:15;33.63;;;25.92;;
37655;SDS011;23498;50.958;3.124;2023-09-07T04:25:41;33.42;;;26.42;;
37655;SDS011;23498;50.958;3.124;2023-09-07T04:28:08;32.58;;;26.73;;
37655;SDS011;23498;50.958;3.124;2023-09-07T04:30:37;32.63;;;26.33;;
37655;SDS011;23498;50.958;3.124;2023-09-07T04:33:04;33.45;;;26.60;;
37655;SDS011;23498;50.958;3.124;2023-09-07T04:35:30;33.90;;;26.95;;
37655;SDS011;23498;50.958;3.124;2023-09-07T04:37:57;35.33;;;26.08;;
37655;SDS011;23498;50.958;3.124;2023-09-07T04:40:23;33.17;;;26.10;;
37655;SDS011;23498;50.958;3.124;2023-09-07T04:42:50;33.28;;;25.23;;
37655;SDS011;23498;50.958;3.124;2023-09-07T04:45:16;31.38;;;25.50;;
37655;SDS011;23498;50.958;3.124;2023-09-07T04:47:42;30.50;;;26.33;;
37655;SDS011;23498;50.958;3.124;2023-09-07T04:50:09;31.10;;;24.50;;
37655;SDS011;23498;50.958;3.124;2023-09-07T04:52:35;30.50;;;24.40;;
37655;SDS011;23498;50.958;3.124;2023-09-07T04:55:01;30.33;;;24.13;;
37655;SDS011;23498;50.958;3.124;2023-09-07T04:57:27;33.70;;;25.60;;
37655;SDS011;23498;50.958;3.124;2023-09-07T04:59:53;33.25;;;24.98;;
37655;SDS011;23498;50.958;3.124;2023-09-07T05:02:19;30.38;;;24.80;;
37655;SDS011;23498;50.958;3.124;2023-09-07T05:04:45;30.40;;;24.48;;
37655;SDS011;23498;50.958;3.124;2023-09-07T05:07:11;30.55;;;24.50;;
37655;SDS011;23498;50.958;3.124;2023-09-07T05:09:37;32.97;;;25.15;;
37655;SDS011;23498;50.958;3.124;2023-09-07T05:12:03;35.00;;;24.48;;
37655;SDS011;23498;50.958;3.124;2023-09-07T05:14:29;31.20;;;23.15;;
37655;SDS011;23498;50.958;3.124;2023-09-07T05:16:56;29.65;;;23.05;;
37655;SDS011;23498;50.958;3.124;2023-09-07T05:19:22;31.63;;;24.95;;
37655;SDS011;23498;50.958;3.124;2023-09-07T05:21:48;30.42;;;24.30;;
37655;SDS011;23498;50.958;3.124;2023-09-07T05:24:14;32.63;;;25.55;;
37655;SDS011;23498;50.958;3.124;2023-09-07T05:26:44;35.05;;;26.20;;
37655;SDS011;23498;50.958;3.124;2023-09-07T05:29:11;35.72;;;27.17;;
37655;SDS011;23498;50.958;3.124;2023-09-07T05:31:37;34.20;;;27.00;;
37655;SDS011;23498;50.958;3.124;2023-09-07T05:34:03;33.50;;;26.38;;
37655;SDS011;23498;50.958;3.124;2023-09-07T05:36:30;37.38;;;27.92;;
37655;SDS011;23498;50.958;3.124;2023-09-07T05:38:56;37.78;;;26.70;;
37655;SDS011;23498;50.958;3.124;2023-09-07T05:41:22;35.95;;;25.73;;
37655;SDS011;23498;50.958;3.124;2023-09-07T05:43:48;33.65;;;26.95;;
37655;SDS011;23498;50.958;3.124;2023-09-07T05:46:14;35.67;;;27.83;;
37655;SDS011;23498;50.958;3.124;2023-09-07T05:48:40;38.72;;;27.63;;
37655;SDS011;23498;50.958;3.124;2023-09-07T05:51:06;36.30;;;27.63;;
37655;SDS011;23498;50.958;3.124;2023-09-07T05:53:32;37.10;;;28.02;;
37655;SDS011;23498;50.958;3.124;2023-09-07T05:55:58;32.58;;;25.50;;
37655;SDS011;23498;50.958;3.124;2023-09-07T05:58:24;31.10;;;24.95;;
37655;SDS011;23498;50.958;3.124;2023-09-07T06:00:50;32.97;;;25.90;;
37655;SDS011;23498;50.958;3.124;2023-09-07T06:03:16;32.72;;;25.27;;
37655;SDS011;23498;50.958;3.124;2023-09-07T06:05:42;31.48;;;24.23;;
37655;SDS011;23498;50.958;3.124;2023-09-07T06:08:09;31.67;;;24.25;;
37655;SDS011;23498;50.958;3.124;2023-09-07T06:10:35;31.00;;;24.67;;
37655;SDS011;23498;50.958;3.124;2023-09-07T06:13:01;32.97;;;24.38;;
37655;SDS011;23498;50.958;3.124;2023-09-07T06:15:28;34.95;;;24.55;;
37655;SDS011;23498;50.958;3.124;2023-09-07T06:17:55;34.30;;;24.52;;
37655;SDS011;23498;50.958;3.124;2023-09-07T06:20:21;33.30;;;23.85;;
37655;SDS011;23498;50.958;3.124;2023-09-07T06:22:47;31.83;;;24.10;;
37655;SDS011;23498;50.958;3.124;2023-09-07T06:25:14;27.50;;;22.27;;
37655;SDS011;23498;50.958;3.124;2023-09-07T06:27:40;31.48;;;22.38;;
37655;SDS011;23498;50.958;3.124;2023-09-07T06:30:06;28.50;;;22.58;;
37655;SDS011;23498;50.958;3.124;2023-09-07T06:32:32;30.08;;;23.65;;
37655;SDS011;23498;50.958;3.124;2023-09-07T06:34:58;28.60;;;22.20;;
37655;SDS011;23498;50.958;3.124;2023-09-07T06:37:24;24.30;;;20.17;;
37655;SDS011;23498;50.958;3.124;2023-09-07T06:39:51;28.52;;;20.05;;
37655;SDS011;23498;50.958;3.124;2023-09-07T06:42:17;28.13;;;20.13;;
37655;SDS011;23498;50.958;3.124;2023-09-07T06:44:43;21.88;;;17.35;;
37655;SDS011;23498;50.958;3.124;2023-09-07T06:47:10;23.35;;;17.70;;
37655;SDS011;23498;50.958;3.124;2023-09-07T06:49:37;23.52;;;17.80;;
37655;SDS011;23498;50.958;3.124;2023-09-07T06:52:03;23.35;;;17.02;;
37655;SDS011;23498;50.958;3.124;2023-09-07T06:54:29;22.30;;;17.25;;
37655;SDS011;23498;50.958;3.124;2023-09-07T06:56:55;24.15;;;16.98;;
37655;SDS011;23498;50.958;3.124;2023-09-07T06:59:21;25.58;;;17.33;;
37655;SDS011;23498;50.958;3.124;2023-09-07T07:01:47;20.88;;;16.60;;
37655;SDS011;23498;50.958;3.124;2023-09-07T07:04:13;22.83;;;16.77;;
37655;SDS011;23498;50.958;3.124;2023-09-07T07:06:40;20.05;;;14.18;;
37655;SDS011;23498;50.958;3.124;2023-09-07T07:09:06;21.08;;;15.70;;
37655;SDS011;23498;50.958;3.124;2023-09-07T07:11:34;21.13;;;15.70;;
37655;SDS011;23498;50.958;3.124;2023-09-07T07:14:00;20.70;;;15.70;;
37655;SDS011;23498;50.958;3.124;2023-09-07T07:16:26;21.52;;;15.52;;
37655;SDS011;23498;50.958;3.124;2023-09-07T07:18:52;18.85;;;15.02;;
37655;SDS011;23498;50.958;3.124;2023-09-07T07:21:18;20.95;;;16.00;;
37655;SDS011;23498;50.958;3.124;2023-09-07T07:23:44;22.98;;;16.00;;
37655;SDS011;23498;50.958;3.124;2023-09-07T07:26:10;21.77;;;16.30;;
37655;SDS011;23498;50.958;3.124;2023-09-07T07:28:36;23.42;;;16.17;;
37655;SDS011;23498;50.958;3.124;2023-09-07T07:31:09;20.08;;;15.02;;
37655;SDS011;23498;50.958;3.124;2023-09-07T07:33:35;23.17;;;16.23;;
37655;SDS011;23498;50.958;3.124;2023-09-07T07:36:02;21.75;;;15.10;;
37655;SDS011;23498;50.958;3.124;2023-09-07T07:38:28;19.00;;;15.35;;
37655;SDS011;23498;50.958;3.124;2023-09-07T07:40:54;18.42;;;14.35;;
37655;SDS011;23498;50.958;3.124;2023-09-07T07:43:20;19.83;;;14.55;;
37655;SDS011;23498;50.958;3.124;2023-09-07T07:45:47;18.70;;;14.02;;
37655;SDS011;23498;50.958;3.124;2023-09-07T07:48:13;20.50;;;14.43;;
37655;SDS011;23498;50.958;3.124;2023-09-07T07:50:39;17.17;;;12.68;;
37655;SDS011;23498;50.958;3.124;2023-09-07T07:53:06;18.70;;;13.93;;
37655;SDS011;23498;50.958;3.124;2023-09-07T07:55:38;20.63;;;13.68;;
37655;SDS011;23498;50.958;3.124;2023-09-07T07:58:06;20.17;;;14.15;;
37655;SDS011;23498;50.958;3.124;2023-09-07T08:00:35;18.40;;;13.98;;
37655;SDS011;23498;50.958;3.124;2023-09-07T08:03:01;17.38;;;13.13;;
37655;SDS011;23498;50.958;3.124;2023-09-07T08:05:32;17.15;;;13.20;;
37655;SDS011;23498;50.958;3.124;2023-09-07T08:07:58;17.58;;;13.27;;
37655;SDS011;23498;50.958;3.124;2023-09-07T08:10:24;18.88;;;13.30;;
37655;SDS011;23498;50.958;3.124;2023-09-07T08:12:53;15.88;;;12.60;;
37655;SDS011;23498;50.958;3.124;2023-09-07T08:15:19;17.65;;;13.02;;
37655;SDS011;23498;50.958;3.124;2023-09-07T08:17:47;17.10;;;12.90;;
37655;SDS011;23498;50.958;3.124;2023-09-07T08:20:13;19.17;;;14.48;;
37655;SDS011;23498;50.958;3.124;2023-09-07T08:22:40;24.80;;;12.57;;
37655;SDS011;23498;50.958;3.124;2023-09-07T08:25:10;18.52;;;12.90;;
37655;SDS011;23498;50.958;3.124;2023-09-07T08:27:38;19.80;;;13.13;;
37655;SDS011;23498;50.958;3.124;2023-09-07T08:30:04;18.80;;;13.68;;
37655;SDS011;23498;50.958;3.124;2023-09-07T08:32:31;20.15;;;13.20;;
37655;SDS011;23498;50.958;3.124;2023-09-07T08:34:57;17.27;;;12.98;;
37655;SDS011;23498;50.958;3.124;2023-09-07T08:37:26;21.00;;;13.10;;
37655;SDS011;23498;50.958;3.124;2023-09-07T08:39:54;16.40;;;11.48;;
37655;SDS011;23498;50.958;3.124;2023-09-07T08:42:20;17.92;;;12.43;;
37655;SDS011;23498;50.958;3.124;2023-09-07T08:44:47;16.45;;;12.20;;
37655;SDS011;23498;50.958;3.124;2023-09-07T08:47:14;15.45;;;12.60;;
37655;SDS011;23498;50.958;3.124;2023-09-07T08:49:40;16.58;;;11.77;;
37655;SDS011;23498;50.958;3.124;2023-09-07T08:52:08;16.88;;;12.13;;
37655;SDS011;23498;50.958;3.124;2023-09-07T08:54:34;15.73;;;11.25;;
37655;SDS011;23498;50.958;3.124;2023-09-07T08:57:02;17.98;;;13.00;;
37655;SDS011;23498;50.958;3.124;2023-09-07T08:59:29;18.85;;;11.43;;
37655;SDS011;23498;50.958;3.124;2023-09-07T09:01:56;15.20;;;12.00;;
37655;SDS011;23498;50.958;3.124;2023-09-07T09:04:23;19.02;;;12.52;;
37655;SDS011;23498;50.958;3.124;2023-09-07T09:06:49;16.23;;;10.60;;
37655;SDS011;23498;50.958;3.124;2023-09-07T09:09:23;16.42;;;11.13;;
37655;SDS011;23498;50.958;3.124;2023-09-07T09:11:49;14.93;;;11.05;;
37655;SDS011;23498;50.958;3.124;2023-09-07T09:14:18;18.23;;;11.05;;
37655;SDS011;23498;50.958;3.124;2023-09-07T09:16:49;14.13;;;10.30;;
37655;SDS011;23498;50.958;3.124;2023-09-07T09:19:16;14.43;;;9.88;;
37655;SDS011;23498;50.958;3.124;2023-09-07T09:21:44;11.45;;;8.32;;
37655;SDS011;23498;50.958;3.124;2023-09-07T09:24:10;12.40;;;8.32;;
37655;SDS011;23498;50.958;3.124;2023-09-07T09:26:37;12.45;;;9.20;;
37655;SDS011;23498;50.958;3.124;2023-09-07T09:29:03;13.80;;;7.00;;
37655;SDS011;23498;50.958;3.124;2023-09-07T09:31:29;11.55;;;6.82;;
37655;SDS011;23498;50.958;3.124;2023-09-07T09:33:56;11.40;;;7.25;;
37655;SDS011;23498;50.958;3.124;2023-09-07T09:36:22;11.50;;;8.00;;
37655;SDS011;23498;50.958;3.124;2023-09-07T09:38:49;9.55;;;7.03;;
37655;SDS011;23498;50.958;3.124;2023-09-07T09:41:16;12.75;;;8.75;;
37655;SDS011;23498;50.958;3.124;2023-09-07T09:43:42;12.75;;;8.80;;
37655;SDS011;23498;50.958;3.124;2023-09-07T09:46:14;10.68;;;7.50;;
37655;SDS011;23498;50.958;3.124;2023-09-07T09:48:40;9.30;;;6.13;;
37655;SDS011;23498;50.958;3.124;2023-09-07T09:51:07;8.57;;;6.10;;
37655;SDS011;23498;50.958;3.124;2023-09-07T09:53:34;8.52;;;5.80;;
37655;SDS011;23498;50.958;3.124;2023-09-07T09:56:00;8.60;;;5.68;;
37655;SDS011;23498;50.958;3.124;2023-09-07T09:58:26;9.43;;;6.47;;
37655;SDS011;23498;50.958;3.124;2023-09-07T10:00:54;7.50;;;5.53;;
37655;SDS011;23498;50.958;3.124;2023-09-07T10:03:29;11.23;;;7.10;;
37655;SDS011;23498;50.958;3.124;2023-09-07T10:06:09;10.43;;;7.28;;
37655;SDS011;23498;50.958;3.124;2023-09-07T10:08:35;11.85;;;7.38;;
37655;SDS011;23498;50.958;3.124;2023-09-07T10:11:07;9.23;;;6.55;;
37655;SDS011;23498;50.958;3.124;2023-09-07T10:13:34;12.20;;;7.60;;
37655;SDS011;23498;50.958;3.124;2023-09-07T10:16:03;8.77;;;6.78;;
37655;SDS011;23498;50.958;3.124;2023-09-07T10:18:36;8.50;;;6.07;;
37655;SDS011;23498;50.958;3.124;2023-09-07T10:21:02;8.57;;;6.53;;
37655;SDS011;23498;50.958;3.124;2023-09-07T10:23:38;9.57;;;5.63;;
37655;SDS011;23498;50.958;3.124;2023-09-07T10:26:09;8.07;;;5.53;;
37655;SDS011;23498;50.958;3.124;2023-09-07T10:28:36;10.02;;;5.13;;
37655;SDS011;23498;50.958;3.124;2023-09-07T10:31:03;7.30;;;5.78;;
37655;SDS011;23498;50.958;3.124;2023-09-07T10:33:38;12.07;;;6.63;;
37655;SDS011;23498;50.958;3.124;2023-09-07T10:36:04;8.32;;;5.65;;
37655;SDS011;23498;50.958;3.124;2023-09-07T10:38:31;11.70;;;6.38;;
37655;SDS011;23498;50.958;3.124;2023-09-07T10:40:58;9.27;;;6.10;;
37655;SDS011;23498;50.958;3.124;2023-09-07T10:43:27;8.63;;;5.80;;
37655;SDS011;23498;50.958;3.124;2023-09-07T10:45:54;10.75;;;6.35;;
37655;SDS011;23498;50.958;3.124;2023-09-07T10:48:21;9.75;;;6.90;;
37655;SDS011;23498;50.958;3.124;2023-09-07T10:50:47;8.07;;;5.93;;
37655;SDS011;23498;50.958;3.124;2023-09-07T10:53:13;10.88;;;6.35;;
37655;SDS011;23498;50.958;3.124;2023-09-07T10:55:40;7.80;;;5.05;;
37655;SDS011;23498;50.958;3.124;2023-09-07T10:58:09;8.35;;;6.07;;
37655;SDS011;23498;50.958;3.124;2023-09-07T11:00:36;10.90;;;6.03;;
37655;SDS011;23498;50.958;3.124;2023-09-07T11:03:06;9.05;;;5.32;;
37655;SDS011;23498;50.958;3.124;2023-09-07T11:05:33;9.48;;;5.32;;
37655;SDS011;23498;50.958;3.124;2023-09-07T11:08:01;7.80;;;5.80;;
37655;SDS011;23498;50.958;3.124;2023-09-07T11:10:28;10.30;;;5.63;;
37655;SDS011;23498;50.958;3.124;2023-09-07T11:12:54;9.27;;;5.07;;
37655;SDS011;23498;50.958;3.124;2023-09-07T11:15:20;7.65;;;4.80;;
37655;SDS011;23498;50.958;3.124;2023-09-07T11:17:46;8.07;;;5.15;;
37655;SDS011;23498;50.958;3.124;2023-09-07T11:20:12;7.00;;;4.63;;
37655;SDS011;23498;50.958;3.124;2023-09-07T11:22:38;9.25;;;5.15;;
37655;SDS011;23498;50.958;3.124;2023-09-07T11:25:05;5.93;;;4.30;;
37655;SDS011;23498;50.958;3.124;2023-09-07T11:27:31;6.60;;;4.43;;
37655;SDS011;23498;50.958;3.124;2023-09-07T11:29:58;5.90;;;4.40;;
37655;SDS011;23498;50.958;3.124;2023-09-07T11:32:32;6.95;;;4.20;;
37655;SDS011;23498;50.958;3.124;2023-09-07T11:34:58;7.97;;;4.57;;
37655;SDS011;23498;50.958;3.124;2023-09-07T11:37:24;5.80;;;4.43;;
37655;SDS011;23498;50.958;3.124;2023-09-07T11:39:51;7.32;;;4.25;;
37655;SDS011;23498;50.958;3.124;2023-09-07T11:42:17;5.82;;;4.22;;
37655;SDS011;23498;50.958;3.124;2023-09-07T11:44:43;7.22;;;3.80;;
37655;SDS011;23498;50.958;3.124;2023-09-07T11:47:09;5.78;;;3.70;;
37655;SDS011;23498;50.958;3.124;2023-09-07T11:49:35;5.78;;;3.95;;
37655;SDS011;23498;50.958;3.124;2023-09-07T11:52:01;4.95;;;3.67;;
37655;SDS011;23498;50.958;3.124;2023-09-07T11:54:27;5.32;;;3.78;;
37655;SDS011;23498;50.958;3.124;2023-09-07T11:56:53;6.13;;;3.58;;
37655;SDS011;23498;50.958;3.124;2023-09-07T11:59:19;6.55;;;3.80;;
37655;SDS011;23498;50.958;3.124;2023-09-07T12:01:45;4.78;;;3.70;;
37655;SDS011;23498;50.958;3.124;2023-09-07T12:04:15;5.95;;;3.80;;
37655;SDS011;23498;50.958;3.124;2023-09-07T12:06:41;8.63;;;3.72;;
37655;SDS011;23498;50.958;3.124;2023-09-07T12:09:07;5.53;;;3.67;;
37655;SDS011;23498;50.958;3.124;2023-09-07T12:11:36;8.00;;;4.40;;
37655;SDS011;23498;50.958;3.124;2023-09-07T12:14:02;5.93;;;4.03;;
37655;SDS011;23498;50.958;3.124;2023-09-07T12:16:29;6.90;;;3.92;;
37655;SDS011;23498;50.958;3.124;2023-09-07T12:18:55;5.85;;;3.75;;
37655;SDS011;23498;50.958;3.124;2023-09-07T12:21:21;5.43;;;3.30;;
37655;SDS011;23498;50.958;3.124;2023-09-07T12:23:47;6.85;;;3.70;;
37655;SDS011;23498;50.958;3.124;2023-09-07T12:26:13;5.75;;;3.53;;
37655;SDS011;23498;50.958;3.124;2023-09-07T12:28:41;4.55;;;3.40;;
37655;SDS011;23498;50.958;3.124;2023-09-07T12:31:07;6.43;;;3.38;;
37655;SDS011;23498;50.958;3.124;2023-09-07T12:33:33;5.57;;;3.28;;
37655;SDS011;23498;50.958;3.124;2023-09-07T12:36:00;5.00;;;3.28;;
37655;SDS011;23498;50.958;3.124;2023-09-07T12:38:26;4.93;;;3.38;;
37655;SDS011;23498;50.958;3.124;2023-09-07T12:40:54;4.47;;;3.50;;
37655;SDS011;23498;50.958;3.124;2023-09-07T12:43:20;5.43;;;3.10;;
37655;SDS011;23498;50.958;3.124;2023-09-07T12:45:46;6.57;;;3.38;;
37655;SDS011;23498;50.958;3.124;2023-09-07T12:48:12;4.60;;;3.47;;
37655;SDS011;23498;50.958;3.124;2023-09-07T12:50:38;6.43;;;3.55;;
37655;SDS011;23498;50.958;3.124;2023-09-07T12:53:05;5.15;;;3.58;;
37655;SDS011;23498;50.958;3.124;2023-09-07T12:55:31;4.38;;;3.53;;
37655;SDS011;23498;50.958;3.124;2023-09-07T12:57:58;7.30;;;3.30;;
37655;SDS011;23498;50.958;3.124;2023-09-07T13:00:25;5.10;;;3.42;;
37655;SDS011;23498;50.958;3.124;2023-09-07T13:02:51;4.72;;;3.30;;
37655;SDS011;23498;50.958;3.124;2023-09-07T13:05:17;5.35;;;3.55;;
37655;SDS011;23498;50.958;3.124;2023-09-07T13:07:44;4.35;;;3.25;;
37655;SDS011;23498;50.958;3.124;2023-09-07T13:10:10;5.38;;;3.10;;
37655;SDS011;23498;50.958;3.124;2023-09-07T13:12:36;6.65;;;3.60;;
37655;SDS011;23498;50.958;3.124;2023-09-07T13:15:03;5.60;;;3.58;;
37655;SDS011;23498;50.958;3.124;2023-09-07T13:17:29;4.90;;;3.67;;
37655;SDS011;23498;50.958;3.124;2023-09-07T13:19:55;7.22;;;3.50;;
37655;SDS011;23498;50.958;3.124;2023-09-07T13:22:22;5.10;;;3.30;;
37655;SDS011;23498;50.958;3.124;2023-09-07T13:24:48;5.38;;;3.50;;
37655;SDS011;23498;50.958;3.124;2023-09-07T13:27:15;4.70;;;3.30;;
37655;SDS011;23498;50.958;3.124;2023-09-07T13:29:41;4.78;;;3.35;;
37655;SDS011;23498;50.958;3.124;2023-09-07T13:32:07;7.20;;;3.58;;
37655;SDS011;23498;50.958;3.124;2023-09-07T13:34:33;5.95;;;3.60;;
37655;SDS011;23498;50.958;3.124;2023-09-07T13:36:59;4.60;;;3.63;;
37655;SDS011;23498;50.958;3.124;2023-09-07T13:39:25;5.75;;;3.40;;
37655;SDS011;23498;50.958;3.124;2023-09-07T13:41:51;4.25;;;3.25;;
37655;SDS011;23498;50.958;3.124;2023-09-07T13:44:17;7.07;;;3.35;;
37655;SDS011;23498;50.958;3.124;2023-09-07T13:46:44;4.43;;;3.22;;
37655;SDS011;23498;50.958;3.124;2023-09-07T13:49:10;6.13;;;3.92;;
37655;SDS011;23498;50.958;3.124;2023-09-07T13:51:37;7.13;;;4.07;;
37655;SDS011;23498;50.958;3.124;2023-09-07T13:54:05;5.78;;;3.63;;
37655;SDS011;23498;50.958;3.124;2023-09-07T13:56:31;4.68;;;3.13;;
37655;SDS011;23498;50.958;3.124;2023-09-07T13:58:57;5.88;;;3.65;;
37655;SDS011;23498;50.958;3.124;2023-09-07T14:01:23;6.35;;;3.72;;
37655;SDS011;23498;50.958;3.124;2023-09-07T14:03:49;5.88;;;3.80;;
37655;SDS011;23498;50.958;3.124;2023-09-07T14:06:16;6.28;;;3.50;;
37655;SDS011;23498;50.958;3.124;2023-09-07T14:08:43;5.95;;;3.70;;
37655;SDS011;23498;50.958;3.124;2023-09-07T14:11:11;7.30;;;3.83;;
37655;SDS011;23498;50.958;3.124;2023-09-07T14:13:37;7.70;;;3.13;;
37655;SDS011;23498;50.958;3.124;2023-09-07T14:16:03;7.07;;;3.90;;
37655;SDS011;23498;50.958;3.124;2023-09-07T14:18:29;6.35;;;3.67;;
37655;SDS011;23498;50.958;3.124;2023-09-07T14:20:55;4.50;;;3.65;;
37655;SDS011;23498;50.958;3.124;2023-09-07T14:23:23;5.93;;;3.78;;
37655;SDS011;23498;50.958;3.124;2023-09-07T14:25:53;6.38;;;3.95;;
37655;SDS011;23498;50.958;3.124;2023-09-07T14:28:19;6.57;;;3.88;;